sensor_id;sensor_type;location;lat;lon;timestamp;P1;durP1;ratioP1;P2;durP2;ratioP2
14526;SDS011;7350;51.208;4.238;2023-04-25T00:01:24;4.65;;;2.53;;
14526;SDS011;7350;51.208;4.238;2023-04-25T00:03:51;3.63;;;2.25;;
14526;SDS011;7350;51.208;4.238;2023-04-25T00:06:18;3.75;;;2.20;;
14526;SDS011;7350;51.208;4.238;2023-04-25T00:08:45;4.68;;;2.30;;
14526;SDS011;7350;51.208;4.238;2023-04-25T00:11:17;5.70;;;3.20;;
14526;SDS011;7350;51.208;4.238;2023-04-25T00:13:46;5.43;;;2.25;;
14526;SDS011;7350;51.208;4.238;2023-04-25T00:16:14;4.40;;;2.60;;
14526;SDS011;7350;51.208;4.238;2023-04-25T00:18:41;4.32;;;2.35;;
14526;SDS011;7350;51.208;4.238;2023-04-25T00:21:08;4.82;;;2.47;;
14526;SDS011;7350;51.208;4.238;2023-04-25T00:23:35;4.57;;;2.22;;
14526;SDS011;7350;51.208;4.238;2023-04-25T00:26:03;5.15;;;2.40;;
14526;SDS011;7350;51.208;4.238;2023-04-25T00:28:30;4.22;;;2.28;;
14526;SDS011;7350;51.208;4.238;2023-04-25T00:30:59;4.75;;;2.47;;
14526;SDS011;7350;51.208;4.238;2023-04-25T00:33:26;4.20;;;2.40;;
14526;SDS011;7350;51.208;4.238;2023-04-25T00:35:53;7.70;;;2.40;;
14526;SDS011;7350;51.208;4.238;2023-04-25T00:38:20;6.72;;;2.38;;
14526;SDS011;7350;51.208;4.238;2023-04-25T00:40:47;4.00;;;2.25;;
14526;SDS011;7350;51.208;4.238;2023-04-25T00:43:14;5.18;;;2.78;;
14526;SDS011;7350;51.208;4.238;2023-04-25T00:45:41;3.65;;;2.25;;
14526;SDS011;7350;51.208;4.238;2023-04-25T00:48:11;5.72;;;2.95;;
14526;SDS011;7350;51.208;4.238;2023-04-25T00:50:39;5.38;;;2.30;;
14526;SDS011;7350;51.208;4.238;2023-04-25T00:53:07;4.10;;;2.00;;
14526;SDS011;7350;51.208;4.238;2023-04-25T00:55:35;4.55;;;2.63;;
14526;SDS011;7350;51.208;4.238;2023-04-25T00:58:02;5.65;;;2.47;;
14526;SDS011;7350;51.208;4.238;2023-04-25T01:00:29;5.07;;;2.35;;
14526;SDS011;7350;51.208;4.238;2023-04-25T01:02:56;5.03;;;2.65;;
14526;SDS011;7350;51.208;4.238;2023-04-25T01:05:24;5.28;;;2.55;;
14526;SDS011;7350;51.208;4.238;2023-04-25T01:07:51;3.47;;;1.90;;
14526;SDS011;7350;51.208;4.238;2023-04-25T01:10:18;3.63;;;2.13;;
14526;SDS011;7350;51.208;4.238;2023-04-25T01:12:45;4.00;;;2.10;;
14526;SDS011;7350;51.208;4.238;2023-04-25T01:15:12;3.58;;;1.88;;
14526;SDS011;7350;51.208;4.238;2023-04-25T01:17:39;3.63;;;1.95;;
14526;SDS011;7350;51.208;4.238;2023-04-25T01:20:08;5.15;;;2.25;;
14526;SDS011;7350;51.208;4.238;2023-04-25T01:22:38;3.90;;;1.90;;
14526;SDS011;7350;51.208;4.238;2023-04-25T01:25:05;3.70;;;2.38;;
14526;SDS011;7350;51.208;4.238;2023-04-25T01:27:34;3.80;;;2.17;;
14526;SDS011;7350;51.208;4.238;2023-04-25T01:30:02;5.35;;;2.20;;
14526;SDS011;7350;51.208;4.238;2023-04-25T01:32:30;6.00;;;2.33;;
14526;SDS011;7350;51.208;4.238;2023-04-25T01:35:03;5.60;;;2.13;;
14526;SDS011;7350;51.208;4.238;2023-04-25T01:37:34;6.38;;;2.08;;
14526;SDS011;7350;51.208;4.238;2023-04-25T01:40:03;5.15;;;2.58;;
14526;SDS011;7350;51.208;4.238;2023-04-25T01:42:31;4.25;;;2.28;;
14526;SDS011;7350;51.208;4.238;2023-04-25T01:44:59;4.20;;;2.13;;
14526;SDS011;7350;51.208;4.238;2023-04-25T01:47:26;4.55;;;2.30;;
14526;SDS011;7350;51.208;4.238;2023-04-25T01:49:53;4.43;;;2.00;;
14526;SDS011;7350;51.208;4.238;2023-04-25T01:52:20;4.20;;;2.25;;
14526;SDS011;7350;51.208;4.238;2023-04-25T01:54:47;4.55;;;2.17;;
14526;SDS011;7350;51.208;4.238;2023-04-25T01:57:16;4.18;;;2.20;;
14526;SDS011;7350;51.208;4.238;2023-04-25T01:59:43;4.40;;;2.28;;
14526;SDS011;7350;51.208;4.238;2023-04-25T02:02:10;5.22;;;2.38;;
14526;SDS011;7350;51.208;4.238;2023-04-25T02:04:37;3.67;;;2.20;;
14526;SDS011;7350;51.208;4.238;2023-04-25T02:07:04;3.45;;;2.00;;
14526;SDS011;7350;51.208;4.238;2023-04-25T02:09:31;4.55;;;2.25;;
14526;SDS011;7350;51.208;4.238;2023-04-25T02:11:58;4.90;;;2.70;;
14526;SDS011;7350;51.208;4.238;2023-04-25T02:14:26;5.50;;;2.42;;
14526;SDS011;7350;51.208;4.238;2023-04-25T02:16:53;3.92;;;2.10;;
14526;SDS011;7350;51.208;4.238;2023-04-25T02:19:20;4.70;;;2.42;;
14526;SDS011;7350;51.208;4.238;2023-04-25T02:21:47;5.28;;;2.28;;
14526;SDS011;7350;51.208;4.238;2023-04-25T02:24:14;4.07;;;2.30;;
14526;SDS011;7350;51.208;4.238;2023-04-25T02:26:41;4.85;;;2.38;;
14526;SDS011;7350;51.208;4.238;2023-04-25T02:29:09;3.97;;;2.25;;
14526;SDS011;7350;51.208;4.238;2023-04-25T02:31:37;4.53;;;2.28;;
14526;SDS011;7350;51.208;4.238;2023-04-25T02:34:04;4.28;;;2.13;;
14526;SDS011;7350;51.208;4.238;2023-04-25T02:36:31;4.20;;;2.10;;
14526;SDS011;7350;51.208;4.238;2023-04-25T02:38:59;4.32;;;2.30;;
14526;SDS011;7350;51.208;4.238;2023-04-25T02:41:26;1.92;;;1.67;;
14526;SDS011;7350;51.208;4.238;2023-04-25T02:43:53;5.55;;;2.50;;
14526;SDS011;7350;51.208;4.238;2023-04-25T02:46:20;4.40;;;2.00;;
14526;SDS011;7350;51.208;4.238;2023-04-25T02:48:48;4.63;;;2.22;;
14526;SDS011;7350;51.208;4.238;2023-04-25T02:51:15;6.72;;;2.45;;
14526;SDS011;7350;51.208;4.238;2023-04-25T02:53:42;3.88;;;2.03;;
14526;SDS011;7350;51.208;4.238;2023-04-25T02:56:10;4.05;;;2.10;;
14526;SDS011;7350;51.208;4.238;2023-04-25T02:58:36;3.22;;;1.88;;
14526;SDS011;7350;51.208;4.238;2023-04-25T03:01:03;5.50;;;2.15;;
14526;SDS011;7350;51.208;4.238;2023-04-25T03:03:30;6.50;;;2.40;;
14526;SDS011;7350;51.208;4.238;2023-04-25T03:05:59;4.20;;;2.28;;
14526;SDS011;7350;51.208;4.238;2023-04-25T03:08:26;5.03;;;2.10;;
14526;SDS011;7350;51.208;4.238;2023-04-25T03:10:57;4.35;;;2.03;;
14526;SDS011;7350;51.208;4.238;2023-04-25T03:13:24;5.40;;;2.42;;
14526;SDS011;7350;51.208;4.238;2023-04-25T03:15:52;3.58;;;1.92;;
14526;SDS011;7350;51.208;4.238;2023-04-25T03:18:19;4.40;;;2.20;;
14526;SDS011;7350;51.208;4.238;2023-04-25T03:20:46;4.32;;;2.55;;
14526;SDS011;7350;51.208;4.238;2023-04-25T03:23:14;4.88;;;1.80;;
14526;SDS011;7350;51.208;4.238;2023-04-25T03:25:41;4.45;;;2.47;;
14526;SDS011;7350;51.208;4.238;2023-04-25T03:28:08;3.75;;;1.95;;
14526;SDS011;7350;51.208;4.238;2023-04-25T03:30:35;4.00;;;1.60;;
14526;SDS011;7350;51.208;4.238;2023-04-25T03:33:02;3.53;;;2.05;;
14526;SDS011;7350;51.208;4.238;2023-04-25T03:35:29;4.68;;;2.10;;
14526;SDS011;7350;51.208;4.238;2023-04-25T03:37:56;3.80;;;1.98;;
14526;SDS011;7350;51.208;4.238;2023-04-25T03:40:24;2.80;;;1.60;;
14526;SDS011;7350;51.208;4.238;2023-04-25T03:42:51;4.13;;;2.38;;
14526;SDS011;7350;51.208;4.238;2023-04-25T03:45:18;4.15;;;1.90;;
14526;SDS011;7350;51.208;4.238;2023-04-25T03:47:45;4.35;;;2.33;;
14526;SDS011;7350;51.208;4.238;2023-04-25T03:50:12;3.70;;;1.70;;
14526;SDS011;7350;51.208;4.238;2023-04-25T03:52:39;3.55;;;2.05;;
14526;SDS011;7350;51.208;4.238;2023-04-25T03:55:06;2.88;;;1.77;;
14526;SDS011;7350;51.208;4.238;2023-04-25T03:57:35;4.43;;;2.00;;
14526;SDS011;7350;51.208;4.238;2023-04-25T04:00:02;2.92;;;1.65;;
14526;SDS011;7350;51.208;4.238;2023-04-25T04:02:31;2.75;;;1.55;;
14526;SDS011;7350;51.208;4.238;2023-04-25T04:04:59;3.65;;;1.95;;
14526;SDS011;7350;51.208;4.238;2023-04-25T04:07:26;2.88;;;1.73;;
14526;SDS011;7350;51.208;4.238;2023-04-25T04:09:53;2.70;;;1.55;;
14526;SDS011;7350;51.208;4.238;2023-04-25T04:12:20;3.63;;;1.60;;
14526;SDS011;7350;51.208;4.238;2023-04-25T04:14:49;3.95;;;1.73;;
14526;SDS011;7350;51.208;4.238;2023-04-25T04:17:15;4.47;;;2.13;;
14526;SDS011;7350;51.208;4.238;2023-04-25T04:19:42;2.53;;;1.60;;
14526;SDS011;7350;51.208;4.238;2023-04-25T04:22:10;2.60;;;1.30;;
14526;SDS011;7350;51.208;4.238;2023-04-25T04:24:36;3.70;;;1.45;;
14526;SDS011;7350;51.208;4.238;2023-04-25T04:27:03;3.65;;;1.73;;
14526;SDS011;7350;51.208;4.238;2023-04-25T04:29:30;5.68;;;1.98;;
14526;SDS011;7350;51.208;4.238;2023-04-25T04:31:59;4.90;;;1.55;;
14526;SDS011;7350;51.208;4.238;2023-04-25T04:34:26;5.70;;;1.98;;
14526;SDS011;7350;51.208;4.238;2023-04-25T04:36:53;5.72;;;2.17;;
14526;SDS011;7350;51.208;4.238;2023-04-25T04:39:20;4.72;;;1.88;;
14526;SDS011;7350;51.208;4.238;2023-04-25T04:41:47;4.55;;;2.25;;
14526;SDS011;7350;51.208;4.238;2023-04-25T04:44:14;7.47;;;1.85;;
14526;SDS011;7350;51.208;4.238;2023-04-25T04:46:41;6.55;;;2.28;;
14526;SDS011;7350;51.208;4.238;2023-04-25T04:49:10;6.40;;;2.05;;
14526;SDS011;7350;51.208;4.238;2023-04-25T04:51:38;7.53;;;2.00;;
14526;SDS011;7350;51.208;4.238;2023-04-25T04:54:06;6.63;;;2.10;;
14526;SDS011;7350;51.208;4.238;2023-04-25T04:56:33;5.15;;;1.92;;
14526;SDS011;7350;51.208;4.238;2023-04-25T04:59:00;5.95;;;2.00;;
14526;SDS011;7350;51.208;4.238;2023-04-25T05:01:27;5.32;;;1.70;;
14526;SDS011;7350;51.208;4.238;2023-04-25T05:03:55;8.18;;;2.35;;
14526;SDS011;7350;51.208;4.238;2023-04-25T05:06:26;5.22;;;1.98;;
14526;SDS011;7350;51.208;4.238;2023-04-25T05:08:54;9.93;;;2.88;;
14526;SDS011;7350;51.208;4.238;2023-04-25T05:11:21;6.88;;;2.28;;
14526;SDS011;7350;51.208;4.238;2023-04-25T05:13:49;9.43;;;2.58;;
14526;SDS011;7350;51.208;4.238;2023-04-25T05:16:16;5.53;;;2.10;;
14526;SDS011;7350;51.208;4.238;2023-04-25T05:18:43;5.90;;;2.20;;
14526;SDS011;7350;51.208;4.238;2023-04-25T05:21:10;6.55;;;2.40;;
14526;SDS011;7350;51.208;4.238;2023-04-25T05:23:38;7.75;;;1.98;;
14526;SDS011;7350;51.208;4.238;2023-04-25T05:26:05;8.93;;;2.60;;
14526;SDS011;7350;51.208;4.238;2023-04-25T05:28:38;7.35;;;2.25;;
14526;SDS011;7350;51.208;4.238;2023-04-25T05:31:05;5.60;;;2.10;;
14526;SDS011;7350;51.208;4.238;2023-04-25T05:33:33;5.15;;;2.30;;
14526;SDS011;7350;51.208;4.238;2023-04-25T05:35:59;7.97;;;2.35;;
14526;SDS011;7350;51.208;4.238;2023-04-25T05:38:26;9.05;;;2.08;;
14526;SDS011;7350;51.208;4.238;2023-04-25T05:40:56;4.35;;;2.08;;
14526;SDS011;7350;51.208;4.238;2023-04-25T05:43:23;8.70;;;2.40;;
14526;SDS011;7350;51.208;4.238;2023-04-25T05:45:50;8.35;;;2.05;;
14526;SDS011;7350;51.208;4.238;2023-04-25T05:48:17;4.43;;;2.00;;
14526;SDS011;7350;51.208;4.238;2023-04-25T05:50:43;8.10;;;1.95;;
14526;SDS011;7350;51.208;4.238;2023-04-25T05:53:10;6.95;;;1.88;;
14526;SDS011;7350;51.208;4.238;2023-04-25T05:55:37;5.65;;;2.30;;
14526;SDS011;7350;51.208;4.238;2023-04-25T05:58:07;5.82;;;2.30;;
14526;SDS011;7350;51.208;4.238;2023-04-25T06:00:34;7.47;;;2.90;;
14526;SDS011;7350;51.208;4.238;2023-04-25T06:03:01;6.28;;;2.47;;
14526;SDS011;7350;51.208;4.238;2023-04-25T06:05:28;6.28;;;1.80;;
14526;SDS011;7350;51.208;4.238;2023-04-25T06:07:55;6.45;;;2.10;;
14526;SDS011;7350;51.208;4.238;2023-04-25T06:10:22;3.83;;;2.33;;
14526;SDS011;7350;51.208;4.238;2023-04-25T06:12:49;6.00;;;2.15;;
14526;SDS011;7350;51.208;4.238;2023-04-25T06:15:17;4.97;;;1.80;;
14526;SDS011;7350;51.208;4.238;2023-04-25T06:17:44;4.50;;;2.10;;
14526;SDS011;7350;51.208;4.238;2023-04-25T06:20:11;5.43;;;2.13;;
14526;SDS011;7350;51.208;4.238;2023-04-25T06:22:38;5.55;;;2.83;;
14526;SDS011;7350;51.208;4.238;2023-04-25T06:25:05;5.82;;;2.00;;
14526;SDS011;7350;51.208;4.238;2023-04-25T06:27:33;5.90;;;2.17;;
14526;SDS011;7350;51.208;4.238;2023-04-25T06:30:01;4.57;;;1.85;;
14526;SDS011;7350;51.208;4.238;2023-04-25T06:32:30;5.70;;;1.80;;
14526;SDS011;7350;51.208;4.238;2023-04-25T06:34:59;5.47;;;2.20;;
14526;SDS011;7350;51.208;4.238;2023-04-25T06:37:26;4.80;;;1.67;;
14526;SDS011;7350;51.208;4.238;2023-04-25T06:39:53;5.28;;;2.17;;
14526;SDS011;7350;51.208;4.238;2023-04-25T06:42:20;8.15;;;2.25;;
14526;SDS011;7350;51.208;4.238;2023-04-25T06:44:47;4.25;;;1.83;;
14526;SDS011;7350;51.208;4.238;2023-04-25T06:47:13;5.80;;;2.00;;
14526;SDS011;7350;51.208;4.238;2023-04-25T06:49:42;3.40;;;1.70;;
14526;SDS011;7350;51.208;4.238;2023-04-25T06:52:09;7.35;;;2.13;;
14526;SDS011;7350;51.208;4.238;2023-04-25T06:54:36;3.42;;;1.77;;
14526;SDS011;7350;51.208;4.238;2023-04-25T06:57:03;3.90;;;1.63;;
14526;SDS011;7350;51.208;4.238;2023-04-25T06:59:30;4.03;;;2.08;;
14526;SDS011;7350;51.208;4.238;2023-04-25T07:01:57;3.33;;;1.70;;
14526;SDS011;7350;51.208;4.238;2023-04-25T07:04:24;3.47;;;1.60;;
14526;SDS011;7350;51.208;4.238;2023-04-25T07:06:53;4.38;;;2.10;;
14526;SDS011;7350;51.208;4.238;2023-04-25T07:09:20;4.13;;;1.90;;
14526;SDS011;7350;51.208;4.238;2023-04-25T07:11:47;3.80;;;1.73;;
14526;SDS011;7350;51.208;4.238;2023-04-25T07:14:14;2.75;;;1.52;;
14526;SDS011;7350;51.208;4.238;2023-04-25T07:16:41;3.15;;;1.60;;
14526;SDS011;7350;51.208;4.238;2023-04-25T07:19:08;5.78;;;1.90;;
14526;SDS011;7350;51.208;4.238;2023-04-25T07:21:35;5.15;;;1.80;;
14526;SDS011;7350;51.208;4.238;2023-04-25T07:24:04;3.53;;;1.85;;
14526;SDS011;7350;51.208;4.238;2023-04-25T07:26:31;3.35;;;1.63;;
14526;SDS011;7350;51.208;4.238;2023-04-25T07:28:58;4.32;;;1.90;;
14526;SDS011;7350;51.208;4.238;2023-04-25T07:31:25;3.95;;;1.80;;
14526;SDS011;7350;51.208;4.238;2023-04-25T07:33:52;3.20;;;1.83;;
14526;SDS011;7350;51.208;4.238;2023-04-25T07:36:19;3.88;;;1.70;;
14526;SDS011;7350;51.208;4.238;2023-04-25T07:38:46;4.07;;;1.70;;
14526;SDS011;7350;51.208;4.238;2023-04-25T07:41:15;4.03;;;1.70;;
14526;SDS011;7350;51.208;4.238;2023-04-25T07:43:41;3.67;;;1.80;;
14526;SDS011;7350;51.208;4.238;2023-04-25T07:46:08;2.53;;;1.50;;
14526;SDS011;7350;51.208;4.238;2023-04-25T07:48:35;3.67;;;1.73;;
14526;SDS011;7350;51.208;4.238;2023-04-25T07:51:02;2.45;;;1.58;;
14526;SDS011;7350;51.208;4.238;2023-04-25T07:53:30;3.30;;;1.50;;
14526;SDS011;7350;51.208;4.238;2023-04-25T07:55:58;3.00;;;1.38;;
14526;SDS011;7350;51.208;4.238;2023-04-25T07:58:27;4.88;;;1.90;;
14526;SDS011;7350;51.208;4.238;2023-04-25T08:00:54;3.92;;;1.48;;
14526;SDS011;7350;51.208;4.238;2023-04-25T08:03:21;1.90;;;1.40;;
14526;SDS011;7350;51.208;4.238;2023-04-25T08:05:48;3.38;;;1.80;;
14526;SDS011;7350;51.208;4.238;2023-04-25T08:08:15;4.15;;;1.75;;
14526;SDS011;7350;51.208;4.238;2023-04-25T08:10:41;3.75;;;1.73;;
14526;SDS011;7350;51.208;4.238;2023-04-25T08:13:09;2.65;;;1.60;;
14526;SDS011;7350;51.208;4.238;2023-04-25T08:15:37;3.05;;;1.70;;
14526;SDS011;7350;51.208;4.238;2023-04-25T08:18:04;3.38;;;1.48;;
14526;SDS011;7350;51.208;4.238;2023-04-25T08:20:31;2.65;;;1.42;;
14526;SDS011;7350;51.208;4.238;2023-04-25T08:22:58;3.92;;;1.52;;
14526;SDS011;7350;51.208;4.238;2023-04-25T08:25:25;3.28;;;1.48;;
14526;SDS011;7350;51.208;4.238;2023-04-25T08:27:52;2.85;;;1.67;;
14526;SDS011;7350;51.208;4.238;2023-04-25T08:30:19;1.98;;;1.48;;
14526;SDS011;7350;51.208;4.238;2023-04-25T08:32:47;4.38;;;1.70;;
14526;SDS011;7350;51.208;4.238;2023-04-25T08:35:14;3.88;;;1.35;;
14526;SDS011;7350;51.208;4.238;2023-04-25T08:37:42;2.97;;;1.70;;
14526;SDS011;7350;51.208;4.238;2023-04-25T08:40:10;4.88;;;1.65;;
14526;SDS011;7350;51.208;4.238;2023-04-25T08:42:40;2.45;;;1.40;;
14526;SDS011;7350;51.208;4.238;2023-04-25T08:45:08;2.55;;;1.30;;
14526;SDS011;7350;51.208;4.238;2023-04-25T08:47:35;2.53;;;1.50;;
14526;SDS011;7350;51.208;4.238;2023-04-25T08:50:06;3.80;;;1.48;;
14526;SDS011;7350;51.208;4.238;2023-04-25T08:52:35;2.53;;;1.42;;
14526;SDS011;7350;51.208;4.238;2023-04-25T08:55:04;2.58;;;1.40;;
14526;SDS011;7350;51.208;4.238;2023-04-25T08:57:33;4.30;;;1.50;;
14526;SDS011;7350;51.208;4.238;2023-04-25T09:00:01;2.88;;;1.38;;
14526;SDS011;7350;51.208;4.238;2023-04-25T09:02:31;2.92;;;1.50;;
14526;SDS011;7350;51.208;4.238;2023-04-25T09:04:58;1.90;;;1.40;;
14526;SDS011;7350;51.208;4.238;2023-04-25T09:07:27;2.75;;;1.40;;
14526;SDS011;7350;51.208;4.238;2023-04-25T09:09:54;2.67;;;1.50;;
14526;SDS011;7350;51.208;4.238;2023-04-25T09:12:21;3.58;;;1.20;;
14526;SDS011;7350;51.208;4.238;2023-04-25T09:17:35;3.13;;;1.42;;
14526;SDS011;7350;51.208;4.238;2023-04-25T09:20:05;2.55;;;1.40;;
14526;SDS011;7350;51.208;4.238;2023-04-25T09:22:35;3.03;;;1.25;;
14526;SDS011;7350;51.208;4.238;2023-04-25T09:25:04;3.38;;;1.30;;
14526;SDS011;7350;51.208;4.238;2023-04-25T09:27:35;3.35;;;1.08;;
14526;SDS011;7350;51.208;4.238;2023-04-25T09:30:02;3.55;;;1.52;;
14526;SDS011;7350;51.208;4.238;2023-04-25T09:32:30;2.08;;;1.20;;
14526;SDS011;7350;51.208;4.238;2023-04-25T09:34:57;3.15;;;1.40;;
14526;SDS011;7350;51.208;4.238;2023-04-25T09:37:25;1.67;;;1.10;;
14526;SDS011;7350;51.208;4.238;2023-04-25T09:39:55;2.85;;;1.27;;
14526;SDS011;7350;51.208;4.238;2023-04-25T09:42:24;2.53;;;1.08;;
14526;SDS011;7350;51.208;4.238;2023-04-25T09:44:52;1.95;;;1.40;;
14526;SDS011;7350;51.208;4.238;2023-04-25T09:47:22;3.80;;;1.20;;
14526;SDS011;7350;51.208;4.238;2023-04-25T09:49:51;3.70;;;1.20;;
14526;SDS011;7350;51.208;4.238;2023-04-25T09:52:18;2.38;;;1.10;;
14526;SDS011;7350;51.208;4.238;2023-04-25T09:54:47;2.13;;;1.27;;
14526;SDS011;7350;51.208;4.238;2023-04-25T09:57:17;3.00;;;1.25;;
14526;SDS011;7350;51.208;4.238;2023-04-25T09:59:47;3.10;;;1.30;;
14526;SDS011;7350;51.208;4.238;2023-04-25T10:02:16;3.60;;;1.33;;
14526;SDS011;7350;51.208;4.238;2023-04-25T10:04:47;3.47;;;1.40;;
14526;SDS011;7350;51.208;4.238;2023-04-25T10:07:16;2.67;;;1.30;;
14526;SDS011;7350;51.208;4.238;2023-04-25T10:09:47;2.95;;;1.30;;
14526;SDS011;7350;51.208;4.238;2023-04-25T10:12:17;1.83;;;1.10;;
14526;SDS011;7350;51.208;4.238;2023-04-25T10:14:45;2.75;;;1.42;;
14526;SDS011;7350;51.208;4.238;2023-04-25T10:17:12;3.63;;;1.35;;
14526;SDS011;7350;51.208;4.238;2023-04-25T10:19:40;4.20;;;1.17;;
14526;SDS011;7350;51.208;4.238;2023-04-25T10:22:08;3.58;;;1.58;;
14526;SDS011;7350;51.208;4.238;2023-04-25T10:24:41;1.40;;;1.02;;
14526;SDS011;7350;51.208;4.238;2023-04-25T10:27:09;2.83;;;1.27;;
14526;SDS011;7350;51.208;4.238;2023-04-25T10:29:38;2.80;;;1.00;;
14526;SDS011;7350;51.208;4.238;2023-04-25T10:32:08;2.10;;;1.10;;
14526;SDS011;7350;51.208;4.238;2023-04-25T10:34:38;2.58;;;1.30;;
14526;SDS011;7350;51.208;4.238;2023-04-25T10:37:08;4.88;;;1.60;;
14526;SDS011;7350;51.208;4.238;2023-04-25T10:39:37;3.15;;;1.20;;
14526;SDS011;7350;51.208;4.238;2023-04-25T10:42:06;2.77;;;1.30;;
14526;SDS011;7350;51.208;4.238;2023-04-25T10:44:34;2.17;;;1.20;;
14526;SDS011;7350;51.208;4.238;2023-04-25T10:47:05;4.00;;;1.35;;
14526;SDS011;7350;51.208;4.238;2023-04-25T10:49:34;2.67;;;1.10;;
14526;SDS011;7350;51.208;4.238;2023-04-25T10:52:15;2.08;;;1.35;;
14526;SDS011;7350;51.208;4.238;2023-04-25T10:54:47;2.08;;;1.42;;
14526;SDS011;7350;51.208;4.238;2023-04-25T11:00:07;2.20;;;1.20;;
14526;SDS011;7350;51.208;4.238;2023-04-25T11:02:38;3.10;;;1.20;;
14526;SDS011;7350;51.208;4.238;2023-04-25T11:05:10;2.05;;;0.90;;
14526;SDS011;7350;51.208;4.238;2023-04-25T11:07:44;1.88;;;1.20;;
14526;SDS011;7350;51.208;4.238;2023-04-25T11:10:15;1.48;;;1.02;;
14526;SDS011;7350;51.208;4.238;2023-04-25T11:12:42;2.70;;;1.13;;
14526;SDS011;7350;51.208;4.238;2023-04-25T11:15:11;2.05;;;1.10;;
14526;SDS011;7350;51.208;4.238;2023-04-25T11:17:39;2.65;;;1.10;;
14526;SDS011;7350;51.208;4.238;2023-04-25T11:20:08;2.25;;;1.13;;
14526;SDS011;7350;51.208;4.238;2023-04-25T11:22:37;1.73;;;0.90;;
14526;SDS011;7350;51.208;4.238;2023-04-25T11:25:07;1.85;;;1.10;;
14526;SDS011;7350;51.208;4.238;2023-04-25T11:27:37;2.20;;;1.08;;
14526;SDS011;7350;51.208;4.238;2023-04-25T11:30:12;1.30;;;0.80;;
14526;SDS011;7350;51.208;4.238;2023-04-25T11:32:41;2.10;;;1.05;;
14526;SDS011;7350;51.208;4.238;2023-04-25T11:35:09;2.35;;;1.10;;
14526;SDS011;7350;51.208;4.238;2023-04-25T11:37:36;1.85;;;0.80;;
14526;SDS011;7350;51.208;4.238;2023-04-25T11:40:05;1.95;;;1.00;;
14526;SDS011;7350;51.208;4.238;2023-04-25T11:42:35;1.73;;;0.90;;
14526;SDS011;7350;51.208;4.238;2023-04-25T11:45:04;1.65;;;0.77;;
14526;SDS011;7350;51.208;4.238;2023-04-25T11:47:33;1.85;;;0.90;;
14526;SDS011;7350;51.208;4.238;2023-04-25T11:50:02;1.77;;;0.90;;
14526;SDS011;7350;51.208;4.238;2023-04-25T11:52:37;2.90;;;1.30;;
14526;SDS011;7350;51.208;4.238;2023-04-25T11:55:06;2.63;;;1.30;;
14526;SDS011;7350;51.208;4.238;2023-04-25T11:57:34;1.50;;;0.93;;
14526;SDS011;7350;51.208;4.238;2023-04-25T12:00:07;2.15;;;0.88;;
14526;SDS011;7350;51.208;4.238;2023-04-25T12:02:36;1.88;;;0.98;;
14526;SDS011;7350;51.208;4.238;2023-04-25T12:05:07;1.90;;;0.85;;
14526;SDS011;7350;51.208;4.238;2023-04-25T12:07:34;2.90;;;1.08;;
14526;SDS011;7350;51.208;4.238;2023-04-25T12:10:06;3.00;;;1.00;;
14526;SDS011;7350;51.208;4.238;2023-04-25T12:12:34;2.17;;;1.02;;
14526;SDS011;7350;51.208;4.238;2023-04-25T12:15:08;4.32;;;1.15;;
14526;SDS011;7350;51.208;4.238;2023-04-25T12:17:36;2.95;;;1.10;;
14526;SDS011;7350;51.208;4.238;2023-04-25T12:20:09;4.53;;;1.38;;
14526;SDS011;7350;51.208;4.238;2023-04-25T12:22:37;5.30;;;1.30;;
14526;SDS011;7350;51.208;4.238;2023-04-25T12:25:04;8.10;;;1.48;;
14526;SDS011;7350;51.208;4.238;2023-04-25T12:27:32;6.93;;;1.55;;
14526;SDS011;7350;51.208;4.238;2023-04-25T12:30:01;14.20;;;2.10;;
14526;SDS011;7350;51.208;4.238;2023-04-25T12:32:28;6.40;;;1.63;;
14526;SDS011;7350;51.208;4.238;2023-04-25T12:34:56;5.15;;;1.30;;
14526;SDS011;7350;51.208;4.238;2023-04-25T12:37:24;7.20;;;1.20;;
14526;SDS011;7350;51.208;4.238;2023-04-25T12:39:51;8.40;;;1.30;;
14526;SDS011;7350;51.208;4.238;2023-04-25T12:42:18;3.88;;;1.27;;
14526;SDS011;7350;51.208;4.238;2023-04-25T12:44:45;5.65;;;1.90;;
14526;SDS011;7350;51.208;4.238;2023-04-25T12:47:12;5.88;;;1.23;;
14526;SDS011;7350;51.208;4.238;2023-04-25T12:49:39;7.03;;;1.25;;
14526;SDS011;7350;51.208;4.238;2023-04-25T12:52:06;4.40;;;1.20;;
14526;SDS011;7350;51.208;4.238;2023-04-25T12:54:38;10.18;;;1.80;;
14526;SDS011;7350;51.208;4.238;2023-04-25T12:57:04;4.53;;;1.40;;
14526;SDS011;7350;51.208;4.238;2023-04-25T12:59:31;4.00;;;1.30;;
14526;SDS011;7350;51.208;4.238;2023-04-25T13:01:58;3.25;;;1.15;;
14526;SDS011;7350;51.208;4.238;2023-04-25T13:04:25;7.78;;;1.55;;
14526;SDS011;7350;51.208;4.238;2023-04-25T13:06:52;5.93;;;1.38;;
14526;SDS011;7350;51.208;4.238;2023-04-25T13:09:20;4.03;;;1.67;;
14526;SDS011;7350;51.208;4.238;2023-04-25T13:11:48;5.72;;;1.40;;
14526;SDS011;7350;51.208;4.238;2023-04-25T13:14:15;3.88;;;1.40;;
14526;SDS011;7350;51.208;4.238;2023-04-25T13:16:42;5.97;;;1.83;;
14526;SDS011;7350;51.208;4.238;2023-04-25T13:19:09;4.50;;;1.58;;
14526;SDS011;7350;51.208;4.238;2023-04-25T13:21:37;6.70;;;1.63;;
14526;SDS011;7350;51.208;4.238;2023-04-25T13:24:04;8.05;;;1.70;;
14526;SDS011;7350;51.208;4.238;2023-04-25T13:26:32;4.07;;;1.27;;
14526;SDS011;7350;51.208;4.238;2023-04-25T13:29:00;6.63;;;1.55;;
14526;SDS011;7350;51.208;4.238;2023-04-25T13:31:28;3.63;;;1.40;;
14526;SDS011;7350;51.208;4.238;2023-04-25T13:33:55;6.63;;;1.60;;
14526;SDS011;7350;51.208;4.238;2023-04-25T13:36:22;5.15;;;1.48;;
14526;SDS011;7350;51.208;4.238;2023-04-25T13:38:52;6.95;;;1.60;;
14526;SDS011;7350;51.208;4.238;2023-04-25T13:41:19;5.80;;;1.73;;
14526;SDS011;7350;51.208;4.238;2023-04-25T13:43:46;2.72;;;1.40;;
14526;SDS011;7350;51.208;4.238;2023-04-25T13:46:15;6.72;;;1.73;;
14526;SDS011;7350;51.208;4.238;2023-04-25T13:48:42;7.20;;;1.92;;
14526;SDS011;7350;51.208;4.238;2023-04-25T13:51:12;4.63;;;1.63;;
14526;SDS011;7350;51.208;4.238;2023-04-25T13:53:41;8.30;;;1.80;;
14526;SDS011;7350;51.208;4.238;2023-04-25T13:56:07;9.70;;;2.40;;
14526;SDS011;7350;51.208;4.238;2023-04-25T13:58:36;8.18;;;1.80;;
14526;SDS011;7350;51.208;4.238;2023-04-25T14:01:03;6.90;;;2.15;;
14526;SDS011;7350;51.208;4.238;2023-04-25T14:03:31;12.15;;;2.70;;
14526;SDS011;7350;51.208;4.238;2023-04-25T14:05:58;7.82;;;2.45;;
14526;SDS011;7350;51.208;4.238;2023-04-25T14:08:25;9.10;;;2.13;;
14526;SDS011;7350;51.208;4.238;2023-04-25T14:10:53;10.73;;;2.50;;
14526;SDS011;7350;51.208;4.238;2023-04-25T14:13:20;12.52;;;2.53;;
14526;SDS011;7350;51.208;4.238;2023-04-25T14:15:48;9.68;;;2.22;;
14526;SDS011;7350;51.208;4.238;2023-04-25T14:18:16;7.68;;;2.50;;
14526;SDS011;7350;51.208;4.238;2023-04-25T14:20:45;7.43;;;2.38;;
14526;SDS011;7350;51.208;4.238;2023-04-25T14:23:12;7.38;;;2.35;;
14526;SDS011;7350;51.208;4.238;2023-04-25T14:25:39;9.07;;;2.38;;
14526;SDS011;7350;51.208;4.238;2023-04-25T14:28:07;10.60;;;2.33;;
14526;SDS011;7350;51.208;4.238;2023-04-25T14:30:34;13.00;;;2.35;;
14526;SDS011;7350;51.208;4.238;2023-04-25T14:33:01;6.45;;;2.35;;
14526;SDS011;7350;51.208;4.238;2023-04-25T14:35:28;8.15;;;2.45;;
14526;SDS011;7350;51.208;4.238;2023-04-25T14:37:57;8.18;;;2.20;;
14526;SDS011;7350;51.208;4.238;2023-04-25T14:40:26;9.07;;;2.35;;
14526;SDS011;7350;51.208;4.238;2023-04-25T14:42:54;9.85;;;2.28;;
14526;SDS011;7350;51.208;4.238;2023-04-25T14:45:21;8.32;;;2.17;;
14526;SDS011;7350;51.208;4.238;2023-04-25T14:47:48;10.00;;;2.38;;
14526;SDS011;7350;51.208;4.238;2023-04-25T14:50:15;8.23;;;2.35;;
14526;SDS011;7350;51.208;4.238;2023-04-25T14:52:42;5.15;;;1.67;;
14526;SDS011;7350;51.208;4.238;2023-04-25T14:55:11;8.65;;;2.10;;
14526;SDS011;7350;51.208;4.238;2023-04-25T14:57:39;7.75;;;2.22;;
14526;SDS011;7350;51.208;4.238;2023-04-25T15:00:06;7.03;;;2.10;;
14526;SDS011;7350;51.208;4.238;2023-04-25T15:02:34;5.65;;;1.98;;
14526;SDS011;7350;51.208;4.238;2023-04-25T15:05:02;15.18;;;2.78;;
14526;SDS011;7350;51.208;4.238;2023-04-25T15:07:29;6.25;;;2.10;;
14526;SDS011;7350;51.208;4.238;2023-04-25T15:09:56;6.70;;;2.10;;